Current Weather

Shannon

Fredericksburg, Virginia (KEZF)

Report from: Thursday, April 25, 2024 1:15 AM EDT
Current time: Thursday, April 25, 2024 1:40 AM EDT

Nearby weather – Weather history – Daily summaries
Weather forecast

Temperature14.6°C (58.3°F)
Dew point4.9°C (40.8°F)
Winds 4 kts (2.1 m/s, 4.6 mph) North (350°)
Visibility10 mi. (16.1 km)
Clouds Ceiling: Broken clouds 9,000 ft. (2,743 m)
Altimeter30.11 in.Hg (1020 mB)
Relative humidity52 %
Density altitude-135 ft. (-41 m)
Remarks Fully automated report
Automated weather observing station with precipitation discriminator
Flight conditions Visual Meteorological Conditions
Raw dataKEZF 250515Z AUTO 35004KT 10SM BKN090 15/05 A3011 RMK AO2 T01460049
An error has occurred. This application may no longer respond until reloaded. Reload 🗙